createdAt,value
2023-02-02T00:00:25.492Z,99.59
2023-02-02T00:02:51.909Z,99.33
2023-02-02T00:05:18.397Z,99.46
2023-02-02T00:07:44.847Z,99.66
2023-02-02T00:10:11.276Z,99.57
2023-02-02T00:12:37.694Z,99.44
2023-02-02T00:15:04.376Z,99.86
2023-02-02T00:17:30.882Z,99.96
2023-02-02T00:19:57.401Z,100.00
2023-02-02T00:22:23.941Z,100.00
2023-02-02T00:24:50.413Z,99.80
2023-02-02T00:27:16.874Z,100.00
2023-02-02T00:29:43.520Z,99.93
2023-02-02T00:32:10.176Z,100.00
2023-02-02T00:34:36.885Z,99.93
2023-02-02T00:37:03.502Z,100.00
2023-02-02T00:39:30.107Z,100.00
2023-02-02T00:41:56.665Z,100.00
2023-02-02T00:44:41.831Z,100.00
2023-02-02T00:47:08.316Z,100.00
2023-02-02T00:49:34.732Z,100.00
2023-02-02T00:52:01.123Z,100.00
2023-02-02T00:54:28.571Z,100.00
2023-02-02T00:56:55.029Z,100.00
2023-02-02T00:59:21.671Z,100.00
2023-02-02T01:01:48.244Z,100.00
2023-02-02T01:04:14.847Z,100.00
2023-02-02T01:06:42.240Z,100.00
2023-02-02T01:09:08.974Z,100.00
2023-02-02T01:11:35.422Z,100.00
2023-02-02T01:14:01.984Z,100.00
2023-02-02T01:16:28.897Z,100.00
2023-02-02T01:18:55.604Z,100.00
2023-02-02T01:21:22.848Z,100.00
2023-02-02T01:23:49.529Z,100.00
2023-02-02T01:26:16.400Z,100.00
2023-02-02T01:28:43.189Z,100.00
2023-02-02T01:31:15.433Z,100.00
2023-02-02T01:33:43.705Z,100.00
2023-02-02T01:36:13.497Z,99.90
2023-02-02T01:38:40.273Z,99.81
2023-02-02T01:41:07.294Z,99.94
2023-02-02T01:43:45.493Z,100.00
2023-02-02T01:46:14.063Z,100.00
2023-02-02T01:48:43.864Z,100.00
2023-02-02T01:51:16.461Z,100.00
2023-02-02T01:53:44.913Z,100.00
2023-02-02T01:56:15.492Z,100.00
2023-02-02T01:58:43.412Z,100.00
2023-02-02T02:01:09.910Z,100.00
2023-02-02T02:03:37.570Z,100.00
2023-02-02T02:06:17.231Z,100.00
2023-02-02T02:08:52.243Z,100.00
2023-02-02T02:11:22.751Z,100.00
2023-02-02T02:14:09.871Z,100.00
2023-02-02T02:17:03.350Z,100.00
2023-02-02T02:20:11.658Z,100.00
2023-02-02T02:23:23.959Z,100.00
2023-02-02T02:26:35.185Z,100.00
2023-02-02T02:29:35.687Z,100.00
2023-02-02T02:32:12.335Z,100.00
2023-02-02T02:35:11.978Z,100.00
2023-02-02T02:37:59.313Z,100.00
2023-02-02T02:40:45.485Z,100.00
2023-02-02T02:43:51.286Z,100.00
2023-02-02T02:46:17.817Z,100.00
2023-02-02T02:48:45.367Z,100.00
2023-02-02T02:51:36.872Z,100.00
2023-02-02T02:54:03.926Z,100.00
2023-02-02T02:56:41.719Z,100.00
2023-02-02T02:59:23.037Z,100.00
2023-02-02T03:02:05.669Z,100.00
2023-02-02T03:04:44.404Z,100.00
2023-02-02T03:07:22.971Z,100.00
2023-02-02T03:09:51.338Z,100.00
2023-02-02T03:12:18.273Z,100.00
2023-02-02T03:14:44.693Z,100.00
2023-02-02T03:17:11.261Z,100.00
2023-02-02T03:19:37.857Z,100.00
2023-02-02T03:22:04.467Z,100.00
2023-02-02T03:24:30.893Z,100.00
2023-02-02T03:26:57.573Z,100.00
2023-02-02T03:29:24.081Z,100.00
2023-02-02T03:31:50.831Z,100.00
2023-02-02T03:34:17.319Z,100.00
2023-02-02T03:36:43.778Z,100.00
2023-02-02T03:39:10.376Z,100.00
2023-02-02T03:41:36.952Z,100.00
2023-02-02T03:44:03.492Z,100.00
2023-02-02T03:46:30.035Z,100.00
2023-02-02T03:48:56.457Z,100.00
2023-02-02T03:51:22.880Z,100.00
2023-02-02T03:53:49.297Z,100.00
2023-02-02T03:56:16.403Z,100.00
2023-02-02T03:58:42.806Z,100.00
2023-02-02T04:01:13.337Z,100.00
2023-02-02T04:03:39.758Z,100.00
2023-02-02T04:06:06.296Z,100.00
2023-02-02T04:08:34.068Z,100.00
2023-02-02T04:11:00.653Z,100.00
2023-02-02T04:13:27.141Z,100.00
2023-02-02T04:16:00.486Z,100.00
2023-02-02T04:18:27.447Z,100.00
2023-02-02T04:21:01.036Z,100.00
2023-02-02T04:23:28.571Z,100.00
2023-02-02T04:25:55.354Z,100.00
2023-02-02T04:28:23.921Z,100.00
2023-02-02T04:30:51.523Z,100.00
2023-02-02T04:33:18.493Z,100.00
2023-02-02T04:35:45.619Z,100.00
2023-02-02T04:38:12.698Z,100.00
2023-02-02T04:40:40.687Z,100.00
2023-02-02T04:43:07.216Z,100.00
2023-02-02T04:45:34.607Z,100.00
2023-02-02T04:48:01.141Z,99.94
2023-02-02T04:50:27.561Z,100.00
2023-02-02T04:53:00.008Z,100.00
2023-02-02T04:55:26.732Z,100.00
2023-02-02T04:57:53.270Z,100.00
2023-02-02T05:00:20.070Z,99.97
2023-02-02T05:02:46.613Z,99.99
2023-02-02T05:05:14.367Z,100.00
2023-02-02T05:07:41.352Z,100.00
2023-02-02T05:10:09.844Z,99.84
2023-02-02T05:12:36.561Z,100.00
2023-02-02T05:15:12.003Z,100.00
2023-02-02T05:17:38.546Z,99.83
2023-02-02T05:20:13.885Z,100.00
2023-02-02T05:22:40.772Z,99.75
2023-02-02T05:25:15.543Z,99.88
2023-02-02T05:27:46.246Z,99.57
2023-02-02T05:30:14.283Z,99.75
2023-02-02T05:32:40.694Z,99.16
2023-02-02T05:35:07.982Z,99.43
2023-02-02T05:37:34.417Z,99.70
2023-02-02T05:40:00.766Z,99.59
2023-02-02T05:42:27.555Z,99.39
2023-02-02T05:44:54.039Z,99.41
2023-02-02T05:47:21.752Z,99.56
2023-02-02T05:49:49.491Z,99.62
2023-02-02T05:52:22.206Z,99.46
2023-02-02T05:54:48.757Z,99.88
2023-02-02T05:57:15.271Z,99.52
2023-02-02T05:59:41.908Z,99.90
2023-02-02T06:02:08.353Z,99.89
2023-02-02T06:04:34.730Z,99.67
2023-02-02T06:07:01.301Z,99.85
2023-02-02T06:09:27.688Z,99.91
2023-02-02T06:11:54.177Z,99.88
2023-02-02T06:14:23.505Z,99.96
2023-02-02T06:16:49.960Z,100.00
2023-02-02T06:19:16.408Z,100.00
2023-02-02T06:21:42.788Z,100.00
2023-02-02T06:24:09.488Z,100.00
2023-02-02T06:26:36.662Z,100.00
2023-02-02T06:29:03.612Z,100.00
2023-02-02T06:31:30.248Z,100.00
2023-02-02T06:33:58.439Z,100.00
2023-02-02T06:36:26.682Z,100.00
2023-02-02T06:38:54.837Z,100.00
2023-02-02T06:41:22.154Z,100.00
2023-02-02T06:43:49.671Z,100.00
2023-02-02T06:46:16.979Z,100.00
2023-02-02T06:48:43.698Z,100.00
2023-02-02T06:51:10.080Z,100.00
2023-02-02T06:53:36.694Z,100.00
2023-02-02T06:56:07.116Z,100.00
2023-02-02T06:58:34.484Z,100.00
2023-02-02T07:01:08.980Z,100.00
2023-02-02T07:03:36.139Z,100.00
2023-02-02T07:06:19.705Z,100.00
2023-02-02T07:09:01.721Z,100.00
2023-02-02T07:11:31.157Z,100.00
2023-02-02T07:13:57.892Z,100.00
2023-02-02T07:16:24.374Z,100.00
2023-02-02T07:18:50.980Z,100.00
2023-02-02T07:21:20.072Z,100.00
2023-02-02T07:23:46.929Z,100.00
2023-02-02T07:26:14.417Z,100.00
2023-02-02T07:28:41.078Z,100.00
2023-02-02T07:31:15.462Z,100.00
2023-02-02T07:33:43.200Z,100.00
2023-02-02T07:36:11.407Z,100.00
2023-02-02T07:38:38.222Z,100.00
2023-02-02T07:41:05.128Z,100.00
2023-02-02T07:43:31.625Z,100.00
2023-02-02T07:46:04.410Z,100.00
2023-02-02T07:48:31.047Z,100.00
2023-02-02T07:51:05.879Z,100.00
2023-02-02T07:53:33.283Z,100.00
2023-02-02T07:56:11.517Z,100.00
2023-02-02T07:58:38.307Z,100.00
2023-02-02T08:01:07.019Z,100.00
2023-02-02T08:03:34.703Z,100.00
2023-02-02T08:06:01.699Z,100.00
2023-02-02T08:08:28.411Z,100.00
2023-02-02T08:10:54.945Z,100.00
2023-02-02T08:13:21.755Z,100.00
2023-02-02T08:15:48.380Z,100.00
2023-02-02T08:18:14.814Z,100.00
2023-02-02T08:20:41.364Z,100.00
2023-02-02T08:23:13.415Z,100.00
2023-02-02T08:25:40.209Z,100.00
2023-02-02T08:28:06.668Z,100.00
2023-02-02T08:30:35.245Z,100.00
2023-02-02T08:33:01.692Z,100.00
2023-02-02T08:35:28.139Z,100.00
2023-02-02T08:37:54.588Z,100.00
2023-02-02T08:40:21.106Z,100.00
2023-02-02T08:42:51.134Z,100.00
2023-02-02T08:46:02.921Z,100.00
2023-02-02T08:48:17.089Z,100.00
2023-02-02T08:50:43.567Z,100.00
2023-02-02T08:53:10.099Z,100.00
2023-02-02T08:55:36.511Z,100.00
2023-02-02T08:58:02.926Z,99.88
2023-02-02T09:00:29.350Z,99.92
2023-02-02T09:02:55.759Z,100.00
2023-02-02T09:05:22.354Z,100.00
2023-02-02T09:07:49.377Z,99.68
2023-02-02T09:10:16.192Z,99.24
2023-02-02T09:12:42.632Z,98.67
2023-02-02T09:15:09.534Z,98.99
2023-02-02T09:17:36.467Z,98.68
2023-02-02T09:20:03.274Z,98.21
2023-02-02T09:22:29.751Z,98.54
2023-02-02T09:24:56.229Z,98.51
2023-02-02T09:27:22.629Z,97.89
2023-02-02T09:29:49.164Z,97.40
2023-02-02T09:32:16.008Z,97.50
2023-02-02T09:34:42.365Z,96.96
2023-02-02T09:37:09.046Z,97.08
2023-02-02T09:39:35.648Z,97.51
2023-02-02T09:42:13.777Z,97.28
2023-02-02T09:45:03.513Z,97.80
2023-02-02T09:47:41.797Z,97.08
2023-02-02T09:50:21.081Z,97.50
2023-02-02T09:53:00.975Z,97.15
2023-02-02T09:55:43.052Z,96.41
2023-02-02T09:58:22.167Z,96.65
2023-02-02T10:01:03.184Z,96.05
2023-02-02T10:03:58.830Z,96.26
2023-02-02T10:06:38.747Z,96.51
2023-02-02T10:09:08.288Z,96.44
2023-02-02T10:11:44.885Z,95.94
2023-02-02T10:14:46.325Z,95.69
2023-02-02T10:17:42.112Z,96.47
2023-02-02T10:20:38.580Z,96.10
2023-02-02T10:23:17.175Z,95.75
2023-02-02T10:25:52.548Z,96.28
2023-02-02T10:28:20.485Z,96.34
2023-02-02T10:30:55.731Z,95.94
2023-02-02T10:33:34.314Z,95.13
2023-02-02T10:36:11.150Z,96.44
2023-02-02T10:38:47.362Z,95.73
2023-02-02T10:41:32.169Z,95.61
2023-02-02T10:44:37.153Z,95.63
2023-02-02T10:47:09.664Z,95.10
2023-02-02T10:49:40.737Z,94.64
2023-02-02T10:52:16.958Z,95.19
2023-02-02T10:55:03.965Z,95.42
2023-02-02T10:57:35.443Z,95.85
2023-02-02T11:00:11.258Z,95.21
2023-02-02T11:02:37.912Z,94.85
2023-02-02T11:05:23.207Z,94.56
2023-02-02T11:07:52.145Z,94.30
2023-02-02T11:10:18.691Z,94.08
2023-02-02T11:12:53.125Z,94.27
2023-02-02T11:15:30.565Z,94.20
2023-02-02T11:18:14.727Z,93.86
2023-02-02T11:20:41.676Z,93.92
2023-02-02T11:23:18.232Z,93.88
2023-02-02T11:25:44.789Z,94.30
2023-02-02T11:28:20.570Z,93.74
2023-02-02T11:30:50.646Z,93.70
2023-02-02T11:33:28.391Z,94.23
2023-02-02T11:36:01.667Z,93.40
2023-02-02T11:38:28.768Z,93.09
2023-02-02T11:41:04.047Z,93.06
2023-02-02T11:43:41.418Z,93.01
2023-02-02T11:46:24.900Z,92.89
2023-02-02T11:48:59.466Z,93.10
2023-02-02T11:51:28.151Z,93.22
2023-02-02T11:54:25.826Z,93.60
2023-02-02T11:56:55.434Z,93.67
2023-02-02T11:59:36.687Z,92.34
2023-02-02T12:02:29.311Z,92.03
2023-02-02T12:05:14.748Z,93.25
2023-02-02T12:07:43.325Z,93.37
2023-02-02T12:10:19.471Z,92.64
2023-02-02T12:12:58.901Z,92.38
2023-02-02T12:15:54.491Z,92.45
2023-02-02T12:18:47.313Z,92.49
2023-02-02T12:21:38.147Z,92.71
2023-02-02T12:24:24.645Z,92.58
2023-02-02T12:27:00.321Z,92.37
2023-02-02T12:29:43.985Z,92.60
2023-02-02T12:32:29.979Z,92.93
2023-02-02T12:35:30.800Z,92.56
2023-02-02T12:38:42.874Z,92.27
2023-02-02T12:41:30.465Z,93.34
2023-02-02T12:44:32.402Z,93.47
2023-02-02T12:47:05.030Z,93.15
2023-02-02T12:49:53.038Z,93.01
2023-02-02T12:52:57.173Z,92.53
2023-02-02T12:55:42.364Z,92.88
2023-02-02T12:58:16.757Z,93.25
2023-02-02T13:00:58.789Z,93.05
2023-02-02T13:03:45.273Z,93.96
2023-02-02T13:06:30.707Z,93.61
2023-02-02T13:09:09.890Z,94.04
2023-02-02T13:11:45.772Z,94.26
2023-02-02T13:14:24.973Z,93.96
2023-02-02T13:16:56.009Z,94.70
2023-02-02T13:19:35.323Z,95.08
2023-02-02T13:22:07.264Z,95.13
2023-02-02T13:24:38.660Z,95.53
2023-02-02T13:27:07.687Z,95.71
2023-02-02T13:29:55.643Z,95.76
2023-02-02T13:32:27.573Z,96.67
2023-02-02T13:35:01.130Z,96.70
2023-02-02T13:37:39.665Z,97.28
2023-02-02T13:40:26.221Z,97.10
2023-02-02T13:43:23.679Z,96.97
2023-02-02T13:46:25.704Z,97.83
2023-02-02T13:49:10.114Z,97.96
2023-02-02T13:51:50.790Z,98.20
2023-02-02T13:54:52.844Z,98.64
2023-02-02T13:57:37.090Z,99.38
2023-02-02T14:00:18.761Z,98.85
2023-02-02T14:02:49.386Z,98.95
2023-02-02T14:05:27.407Z,99.04
2023-02-02T14:08:03.062Z,99.13
2023-02-02T14:10:44.388Z,99.68
2023-02-02T14:13:32.570Z,99.96
2023-02-02T14:16:02.492Z,99.96
2023-02-02T14:18:59.780Z,99.71
2023-02-02T14:21:32.505Z,99.77
2023-02-02T14:24:38.988Z,99.88
2023-02-02T14:27:08.117Z,99.44
2023-02-02T14:29:39.605Z,99.47
2023-02-02T14:32:06.812Z,100.00
2023-02-02T14:34:41.700Z,100.00
2023-02-02T14:37:26.671Z,100.00
2023-02-02T14:40:01.856Z,100.00
2023-02-02T14:43:08.436Z,100.00
2023-02-02T14:45:45.930Z,100.00
2023-02-02T14:48:18.216Z,100.00
2023-02-02T14:50:50.729Z,100.00
2023-02-02T14:53:25.422Z,100.00
2023-02-02T14:55:55.797Z,100.00
2023-02-02T14:58:26.158Z,100.00
2023-02-02T15:01:25.143Z,100.00
2023-02-02T15:03:57.655Z,100.00
2023-02-02T15:06:28.461Z,100.00
2023-02-02T15:09:19.831Z,100.00
2023-02-02T15:12:05.197Z,100.00
2023-02-02T15:14:33.912Z,100.00
2023-02-02T15:17:26.859Z,100.00
2023-02-02T15:20:05.248Z,100.00
2023-02-02T15:22:53.065Z,100.00
2023-02-02T15:25:32.076Z,100.00
2023-02-02T15:28:08.326Z,100.00
2023-02-02T15:30:37.926Z,100.00
2023-02-02T15:33:26.748Z,100.00
2023-02-02T15:35:55.420Z,100.00
2023-02-02T15:38:30.632Z,100.00
2023-02-02T15:40:57.331Z,100.00
2023-02-02T15:43:27.543Z,100.00
2023-02-02T15:46:01.186Z,100.00
2023-02-02T15:48:32.012Z,100.00
2023-02-02T15:51:05.309Z,100.00
2023-02-02T15:53:43.599Z,100.00
2023-02-02T15:56:21.042Z,100.00
2023-02-02T15:58:50.066Z,100.00
2023-02-02T16:01:22.127Z,100.00
2023-02-02T16:04:13.196Z,100.00
2023-02-02T16:06:40.327Z,100.00
2023-02-02T16:09:07.452Z,100.00
2023-02-02T16:11:40.947Z,100.00
2023-02-02T16:14:17.728Z,100.00
2023-02-02T16:16:47.078Z,100.00
2023-02-02T16:19:23.988Z,100.00
2023-02-02T16:21:54.824Z,100.00
2023-02-02T16:24:31.710Z,100.00
2023-02-02T16:27:00.823Z,100.00
2023-02-02T16:29:28.840Z,100.00
2023-02-02T16:31:56.340Z,100.00
2023-02-02T16:34:55.750Z,100.00
2023-02-02T16:37:25.416Z,100.00
2023-02-02T16:39:51.939Z,100.00
2023-02-02T16:42:29.802Z,100.00
2023-02-02T16:44:57.624Z,100.00
2023-02-02T16:47:43.991Z,100.00
2023-02-02T16:50:10.719Z,100.00
2023-02-02T16:52:56.951Z,100.00
2023-02-02T16:55:24.142Z,100.00
2023-02-02T16:57:51.725Z,100.00
2023-02-02T17:00:25.266Z,100.00
2023-02-02T17:02:58.401Z,100.00
2023-02-02T17:05:25.175Z,100.00
2023-02-02T17:07:58.354Z,100.00
2023-02-02T17:10:36.922Z,100.00
2023-02-02T17:13:36.367Z,100.00
2023-02-02T17:16:03.032Z,100.00
2023-02-02T17:18:29.506Z,100.00
2023-02-02T17:20:58.693Z,100.00
2023-02-02T17:23:28.697Z,100.00
2023-02-02T17:25:55.654Z,100.00
2023-02-02T17:28:25.175Z,100.00
2023-02-02T17:31:02.958Z,100.00
2023-02-02T17:33:35.206Z,100.00
2023-02-02T17:36:02.537Z,100.00
2023-02-02T17:38:29.210Z,100.00
2023-02-02T17:41:01.104Z,100.00
2023-02-02T17:43:29.023Z,100.00
2023-02-02T17:45:55.775Z,100.00
2023-02-02T17:48:22.385Z,100.00
2023-02-02T17:50:48.948Z,100.00
2023-02-02T17:53:18.421Z,100.00
2023-02-02T17:55:45.976Z,100.00
2023-02-02T17:58:17.271Z,100.00
2023-02-02T18:00:46.182Z,100.00
2023-02-02T18:03:22.059Z,100.00
2023-02-02T18:05:48.968Z,100.00
2023-02-02T18:08:15.789Z,100.00
2023-02-02T18:10:43.258Z,100.00
2023-02-02T18:13:16.307Z,100.00
2023-02-02T18:15:43.301Z,100.00
2023-02-02T18:18:09.783Z,100.00
2023-02-02T18:20:36.376Z,100.00
2023-02-02T18:23:02.973Z,100.00
2023-02-02T18:25:29.516Z,100.00
2023-02-02T18:27:57.537Z,100.00
2023-02-02T18:30:25.614Z,100.00
2023-02-02T18:32:52.268Z,100.00
2023-02-02T18:35:18.923Z,100.00
2023-02-02T18:37:45.484Z,100.00
2023-02-02T18:40:12.730Z,100.00
2023-02-02T18:42:39.108Z,100.00
2023-02-02T18:45:06.427Z,100.00
2023-02-02T18:47:32.962Z,100.00
2023-02-02T18:49:59.391Z,100.00
2023-02-02T18:52:25.855Z,100.00
2023-02-02T18:54:52.280Z,100.00
2023-02-02T18:57:18.692Z,100.00
2023-02-02T18:59:45.349Z,100.00
2023-02-02T19:02:16.751Z,100.00
2023-02-02T19:05:03.749Z,100.00
2023-02-02T19:08:03.587Z,100.00
2023-02-02T19:10:30.144Z,100.00
2023-02-02T19:13:05.406Z,100.00
2023-02-02T19:15:36.460Z,100.00
2023-02-02T19:18:03.026Z,100.00
2023-02-02T19:20:30.795Z,100.00
2023-02-02T19:23:07.268Z,100.00
2023-02-02T19:25:33.639Z,100.00
2023-02-02T19:28:15.069Z,100.00
2023-02-02T19:30:45.158Z,100.00
2023-02-02T19:33:13.280Z,100.00
2023-02-02T19:35:39.991Z,100.00
2023-02-02T19:38:12.045Z,100.00
2023-02-02T19:40:39.857Z,100.00
2023-02-02T19:43:12.351Z,100.00
2023-02-02T19:45:39.934Z,100.00
2023-02-02T19:48:35.125Z,100.00
2023-02-02T19:51:39.472Z,100.00
2023-02-02T19:54:21.919Z,100.00
2023-02-02T19:56:49.953Z,100.00
2023-02-02T19:59:19.500Z,100.00
2023-02-02T20:01:47.806Z,100.00
2023-02-02T20:04:20.545Z,100.00
2023-02-02T20:06:58.586Z,100.00
2023-02-02T20:09:33.382Z,100.00
2023-02-02T20:12:00.463Z,100.00
2023-02-02T20:14:30.063Z,100.00
2023-02-02T20:17:04.960Z,100.00
2023-02-02T20:19:40.304Z,100.00
2023-02-02T20:22:37.800Z,100.00
2023-02-02T20:25:08.011Z,100.00
2023-02-02T20:27:34.599Z,100.00
2023-02-02T20:30:18.551Z,100.00
2023-02-02T20:32:45.589Z,100.00
2023-02-02T20:35:33.574Z,100.00
2023-02-02T20:38:00.074Z,100.00
2023-02-02T20:40:29.281Z,100.00
2023-02-02T20:42:58.212Z,100.00
2023-02-02T20:45:25.644Z,100.00
2023-02-02T20:47:52.473Z,100.00
2023-02-02T20:50:21.945Z,100.00
2023-02-02T20:52:51.129Z,100.00
2023-02-02T20:55:18.211Z,100.00
2023-02-02T20:57:44.636Z,100.00
2023-02-02T21:00:14.524Z,100.00
2023-02-02T21:02:40.932Z,100.00
2023-02-02T21:05:07.671Z,100.00
2023-02-02T21:07:34.277Z,100.00
2023-02-02T21:10:00.745Z,100.00
2023-02-02T21:12:27.217Z,100.00
2023-02-02T21:14:54.163Z,100.00
2023-02-02T21:17:20.900Z,100.00
2023-02-02T21:19:47.685Z,100.00
2023-02-02T21:22:14.394Z,100.00
2023-02-02T21:24:41.378Z,100.00
2023-02-02T21:27:08.937Z,100.00
2023-02-02T21:29:35.618Z,100.00
2023-02-02T21:32:03.369Z,100.00
2023-02-02T21:34:31.065Z,100.00
2023-02-02T21:36:58.199Z,100.00
2023-02-02T21:39:29.755Z,100.00
2023-02-02T21:42:08.451Z,100.00
2023-02-02T21:44:40.915Z,100.00
2023-02-02T21:47:28.087Z,100.00
2023-02-02T21:49:57.068Z,100.00
2023-02-02T21:52:29.631Z,100.00
2023-02-02T21:54:56.687Z,100.00
2023-02-02T21:57:35.784Z,100.00
2023-02-02T22:00:20.500Z,100.00
2023-02-02T22:02:48.745Z,100.00
2023-02-02T22:05:33.156Z,100.00
2023-02-02T22:08:02.583Z,100.00
2023-02-02T22:10:40.168Z,100.00
2023-02-02T22:13:25.029Z,100.00
2023-02-02T22:15:53.370Z,100.00
2023-02-02T22:18:24.969Z,100.00
2023-02-02T22:20:54.411Z,100.00
2023-02-02T22:23:23.010Z,100.00
2023-02-02T22:25:53.231Z,100.00
2023-02-02T22:28:39.899Z,100.00
2023-02-02T22:31:06.483Z,100.00
2023-02-02T22:33:32.909Z,100.00
2023-02-02T22:35:59.304Z,100.00
2023-02-02T22:38:25.819Z,100.00
2023-02-02T22:40:52.985Z,100.00
2023-02-02T22:43:20.848Z,100.00
2023-02-02T22:45:48.336Z,100.00
2023-02-02T22:48:15.466Z,100.00
2023-02-02T22:50:42.561Z,100.00
2023-02-02T22:53:09.327Z,100.00
2023-02-02T22:55:35.833Z,100.00
2023-02-02T22:58:02.369Z,100.00
2023-02-02T23:00:32.909Z,100.00
2023-02-02T23:03:00.050Z,100.00
2023-02-02T23:05:28.082Z,100.00
2023-02-02T23:07:55.228Z,100.00
2023-02-02T23:10:24.558Z,100.00
2023-02-02T23:12:54.028Z,100.00
2023-02-02T23:15:20.967Z,100.00
2023-02-02T23:17:47.774Z,100.00
2023-02-02T23:20:15.777Z,100.00
2023-02-02T23:22:42.309Z,100.00
2023-02-02T23:25:09.297Z,100.00
2023-02-02T23:27:36.301Z,100.00
2023-02-02T23:30:03.467Z,100.00
2023-02-02T23:32:29.873Z,100.00
2023-02-02T23:34:56.308Z,100.00
2023-02-02T23:37:22.880Z,100.00
2023-02-02T23:39:49.267Z,100.00
2023-02-02T23:42:15.983Z,100.00
2023-02-02T23:44:42.362Z,100.00
2023-02-02T23:47:09.811Z,100.00
2023-02-02T23:49:36.979Z,100.00
2023-02-02T23:52:03.764Z,100.00
2023-02-02T23:54:30.847Z,100.00
2023-02-02T23:56:57.861Z,100.00
2023-02-02T23:59:24.430Z,100.00
